Time;durP1;ratioP1;P1;durP2;ratioP2;P2;SDS_P1;SDS_P2;PMS_P1;PMS_P2;Temp;Humidity;BMP_temperature;BMP_pressure;BME280_temperature;BME280_humidity;BME280_pressure;Samples;Min_cycle;Max_cycle;Signal;HPM_P1;HPM_P2
2024/03/17 00:01:03;;;;;;;40.08;37.78;;;;;;;;;;4197473;28;20459;-59
2024/03/17 00:03:03;;;;;;;44.53;41.42;;;;;;;;;;4197205;28;20052;-59
2024/03/17 00:05:04;;;;;;;48.35;44.47;;;;;;;;;;4197014;28;20102;-58
2024/03/17 00:07:05;;;;;;;52.92;48.08;;;;;;;;;;4197490;28;20085;-58
2024/03/17 00:09:09;;;;;;;47.63;43.47;;;;;;;;;;4197456;28;20045;-57
2024/03/17 00:11:09;;;;;;;45.92;42.65;;;;;;;;;;4196833;28;20052;-58
2024/03/17 00:13:10;;;;;;;45.67;42.28;;;;;;;;;;4197196;28;20049;-58
2024/03/17 00:15:10;;;;;;;43.95;40.78;;;;;;;;;;4197552;28;20060;-59
2024/03/17 00:17:11;;;;;;;41.58;39.08;;;;;;;;;;4197249;28;20257;-59
2024/03/17 00:19:12;;;;;;;41.83;39.17;;;;;;;;;;4197150;28;20531;-58
2024/03/17 00:21:13;;;;;;;48.33;44.75;;;;;;;;;;4197387;28;20519;-59
2024/03/17 00:23:14;;;;;;;51.83;45.55;;;;;;;;;;4197158;28;20078;-59
2024/03/17 00:25:14;;;;;;;46.22;42.60;;;;;;;;;;4197163;28;20131;-59
2024/03/17 00:27:15;;;;;;;48.55;44.90;;;;;;;;;;4196987;28;20435;-57
2024/03/17 00:29:16;;;;;;;50.15;46.08;;;;;;;;;;4197281;28;20135;-58
2024/03/17 00:31:16;;;;;;;62.55;44.55;;;;;;;;;;4180252;28;20041;-57
2024/03/17 00:33:19;;;;;;;81.32;41.63;;;;;;;;;;4196883;28;20490;-59
2024/03/17 00:35:22;;;;;;;48.42;44.90;;;;;;;;;;4197037;28;20036;-58
2024/03/17 00:37:23;;;;;;;43.88;38.88;;;;;;;;;;4196921;28;20037;-59
2024/03/17 00:39:23;;;;;;;39.70;37.63;;;;;;;;;;4197111;28;20040;-59
2024/03/17 00:41:24;;;;;;;43.33;40.03;;;;;;;;;;4196788;28;20443;-58
2024/03/17 00:43:24;;;;;;;41.00;38.00;;;;;;;;;;4196919;28;20099;-59
2024/03/17 00:45:25;;;;;;;42.28;39.60;;;;;;;;;;4195814;28;20037;-58
2024/03/17 00:47:26;;;;;;;37.38;35.15;;;;;;;;;;4195731;28;20128;-58
2024/03/17 00:49:26;;;;;;;37.75;35.45;;;;;;;;;;4195035;28;20064;-59
2024/03/17 00:51:27;;;;;;;38.38;36.00;;;;;;;;;;4196327;28;20048;-59
2024/03/17 00:53:28;;;;;;;39.33;36.42;;;;;;;;;;4196292;28;20072;-59
2024/03/17 00:55:28;;;;;;;41.28;38.80;;;;;;;;;;4196611;28;20051;-58
2024/03/17 00:57:29;;;;;;;38.90;36.72;;;;;;;;;;4196261;28;20066;-59
2024/03/17 00:59:29;;;;;;;38.33;36.00;;;;;;;;;;4196536;28;20062;-57
2024/03/17 01:01:30;;;;;;;37.58;35.65;;;;;;;;;;4196088;28;20040;-57
2024/03/17 01:03:31;;;;;;;39.47;37.47;;;;;;;;;;4196297;28;20076;-56
2024/03/17 01:05:31;;;;;;;37.53;35.65;;;;;;;;;;4195720;28;20062;-57
2024/03/17 01:07:32;;;;;;;36.63;35.13;;;;;;;;;;4196333;28;20041;-57
2024/03/17 01:09:33;;;;;;;36.28;34.60;;;;;;;;;;4196338;28;20666;-57
2024/03/17 01:11:33;;;;;;;37.63;35.90;;;;;;;;;;4196502;28;20049;-57
2024/03/17 01:13:37;;;;;;;36.72;35.03;;;;;;;;;;4196208;28;20045;-57
2024/03/17 01:15:40;;;;;;;38.95;36.50;;;;;;;;;;4195969;28;20044;-57
2024/03/17 01:17:41;;;;;;;43.17;39.75;;;;;;;;;;4196197;28;20554;-57
2024/03/17 01:19:41;;;;;;;44.97;40.67;;;;;;;;;;4196440;28;20043;-57
2024/03/17 01:21:42;;;;;;;47.13;39.53;;;;;;;;;;4196252;28;20028;-57
2024/03/17 01:23:42;;;;;;;38.47;36.08;;;;;;;;;;4196155;28;20041;-57
2024/03/17 01:25:43;;;;;;;40.38;36.72;;;;;;;;;;4195949;28;20113;-57
2024/03/17 01:27:44;;;;;;;42.75;40.03;;;;;;;;;;4196082;28;20587;-57
2024/03/17 01:29:44;;;;;;;41.72;38.30;;;;;;;;;;4196036;28;20044;-56
2024/03/17 01:31:45;;;;;;;52.90;38.72;;;;;;;;;;4196119;28;20202;-57
2024/03/17 01:33:46;;;;;;;40.78;38.40;;;;;;;;;;4196126;28;20048;-57
2024/03/17 01:35:47;;;;;;;80.65;43.85;;;;;;;;;;4196363;28;20041;-57
2024/03/17 01:37:48;;;;;;;42.63;40.33;;;;;;;;;;4196223;28;20040;-57
2024/03/17 01:39:49;;;;;;;38.42;35.90;;;;;;;;;;4196312;28;20058;-57
2024/03/17 01:41:50;;;;;;;39.83;37.93;;;;;;;;;;4196286;28;20044;-57
2024/03/17 01:43:50;;;;;;;36.83;34.35;;;;;;;;;;4196058;28;20071;-57
2024/03/17 01:45:51;;;;;;;37.00;34.65;;;;;;;;;;4196223;28;20041;-57
2024/03/17 01:47:53;;;;;;;40.72;38.40;;;;;;;;;;4195910;28;20127;-57
2024/03/17 01:49:54;;;;;;;39.38;37.20;;;;;;;;;;4196002;28;20048;-57
2024/03/17 01:51:55;;;;;;;57.28;41.97;;;;;;;;;;4196037;28;20055;-57
2024/03/17 01:53:56;;;;;;;40.15;37.30;;;;;;;;;;4195953;28;20530;-57
2024/03/17 01:55:58;;;;;;;37.28;35.38;;;;;;;;;;4195914;28;20086;-57
2024/03/17 01:57:59;;;;;;;39.28;37.13;;;;;;;;;;4196005;28;20036;-57
2024/03/17 02:00:00;;;;;;;39.83;35.65;;;;;;;;;;4195777;28;20542;-57
2024/03/17 02:02:00;;;;;;;59.72;38.25;;;;;;;;;;4195020;28;20068;-57
2024/03/17 02:04:01;;;;;;;51.15;34.15;;;;;;;;;;4199013;22;20048;-52
2024/03/17 02:06:02;;;;;;;43.70;39.58;;;;;;;;;;4179594;28;20488;-53
2024/03/17 02:08:03;;;;;;;36.83;35.13;;;;;;;;;;4179229;28;20057;-52
2024/03/17 02:10:03;;;;;;;36.08;34.50;;;;;;;;;;4179256;28;20033;-52
2024/03/17 02:12:04;;;;;;;49.03;40.03;;;;;;;;;;4212358;28;20055;-52
2024/03/17 02:14:07;;;;;;;59.40;37.35;;;;;;;;;;4179194;28;20040;-52
2024/03/17 02:16:08;;;;;;;41.42;36.67;;;;;;;;;;4179283;28;20064;-54
2024/03/17 02:18:08;;;;;;;52.95;37.03;;;;;;;;;;4212300;28;20044;-53
2024/03/17 02:20:13;;;;;;;76.53;37.13;;;;;;;;;;4179117;28;20045;-50
2024/03/17 02:22:17;;;;;;;42.72;35.53;;;;;;;;;;4212436;28;20044;-50
2024/03/17 02:24:17;;;;;;;72.63;38.20;;;;;;;;;;4179062;28;20044;-53
2024/03/17 02:26:18;;;;;;;63.72;35.03;;;;;;;;;;4179138;28;20044;-53
2024/03/17 02:28:19;;;;;;;39.15;35.28;;;;;;;;;;4214499;28;20036;-52
2024/03/17 02:30:19;;;;;;;36.25;34.10;;;;;;;;;;4182096;28;20043;-53
2024/03/17 02:32:22;;;;;;;35.95;33.47;;;;;;;;;;4165749;28;20101;-51
2024/03/17 02:34:23;;;;;;;38.15;35.80;;;;;;;;;;4198745;28;20531;-53
2024/03/17 02:36:24;;;;;;;35.08;33.65;;;;;;;;;;4182238;28;20060;-51
2024/03/17 02:40:44;;;;;;;39.35;36.80;;;;;;;;;;4182422;28;20428;-52
2024/03/17 02:42:45;;;;;;;37.00;35.00;;;;;;;;;;4181997;28;20059;-52
2024/03/17 02:44:45;;;;;;;38.38;35.47;;;;;;;;;;4182014;28;20041;-53
2024/03/17 02:46:47;;;;;;;36.67;33.72;;;;;;;;;;4181319;28;20045;-51
2024/03/17 02:48:49;;;;;;;36.67;34.50;;;;;;;;;;4164538;28;20552;-52
2024/03/17 02:50:50;;;;;;;39.38;36.80;;;;;;;;;;4181544;28;20299;-51
2024/03/17 02:52:50;;;;;;;39.60;36.88;;;;;;;;;;4165049;28;20034;-53
2024/03/17 02:54:53;;;;;;;49.05;40.47;;;;;;;;;;4181716;28;20611;-51
2024/03/17 02:56:53;;;;;;;43.72;39.35;;;;;;;;;;4181946;28;20095;-51
2024/03/17 02:58:54;;;;;;;39.10;36.00;;;;;;;;;;4181102;28;20041;-54
2024/03/17 03:00:54;;;;;;;39.60;37.53;;;;;;;;;;4181733;28;20061;-52
2024/03/17 03:02:55;;;;;;;40.58;37.83;;;;;;;;;;4181527;28;20045;-52
2024/03/17 03:04:56;;;;;;;41.08;38.08;;;;;;;;;;4182111;28;20452;-53
2024/03/17 03:06:56;;;;;;;41.35;38.75;;;;;;;;;;4181942;28;20045;-54
2024/03/17 03:08:57;;;;;;;38.67;36.00;;;;;;;;;;4181966;28;20041;-58
2024/03/17 03:10:57;;;;;;;39.10;37.25;;;;;;;;;;4181648;28;20136;-58
2024/03/17 03:12:58;;;;;;;41.15;36.92;;;;;;;;;;4165294;28;20037;-57
2024/03/17 03:14:58;;;;;;;39.65;36.33;;;;;;;;;;4181686;28;20047;-58
2024/03/17 03:16:59;;;;;;;40.67;35.47;;;;;;;;;;4181543;28;20202;-58
2024/03/17 03:19:00;;;;;;;38.55;36.88;;;;;;;;;;4181563;28;20055;-57
2024/03/17 03:21:00;;;;;;;39.65;37.70;;;;;;;;;;4181681;28;20431;-57
2024/03/17 03:23:02;;;;;;;39.03;37.13;;;;;;;;;;4181634;28;20045;-57
2024/03/17 03:25:03;;;;;;;36.63;35.03;;;;;;;;;;4181439;28;20048;-56
2024/03/17 03:27:04;;;;;;;35.38;33.88;;;;;;;;;;4181550;28;20044;-58
2024/03/17 03:29:05;;;;;;;35.10;33.42;;;;;;;;;;4181483;28;20045;-58
2024/03/17 03:31:06;;;;;;;37.58;35.40;;;;;;;;;;4181096;28;20051;-56
2024/03/17 03:33:07;;;;;;;38.17;35.83;;;;;;;;;;4181225;28;20045;-57
2024/03/17 03:35:09;;;;;;;39.05;35.50;;;;;;;;;;4181279;28;20381;-57
2024/03/17 03:37:10;;;;;;;64.47;36.80;;;;;;;;;;4181324;28;20033;-57
2024/03/17 03:39:12;;;;;;;106.43;37.55;;;;;;;;;;4180428;28;20064;-58
2024/03/17 03:41:14;;;;;;;39.10;33.88;;;;;;;;;;4181557;28;20039;-58
2024/03/17 03:43:15;;;;;;;40.63;37.17;;;;;;;;;;4181203;28;20474;-57
2024/03/17 03:45:15;;;;;;;38.08;35.60;;;;;;;;;;4181102;28;20463;-57
2024/03/17 03:47:16;;;;;;;38.67;36.22;;;;;;;;;;4181114;28;20037;-57
2024/03/17 03:49:17;;;;;;;38.50;36.30;;;;;;;;;;4180950;28;20546;-55
2024/03/17 03:51:17;;;;;;;34.35;32.45;;;;;;;;;;4180998;28;20083;-56
2024/03/17 03:53:18;;;;;;;36.50;35.20;;;;;;;;;;4181004;28;20163;-58
2024/03/17 03:55:19;;;;;;;35.80;34.38;;;;;;;;;;4164316;28;20049;-58
2024/03/17 03:57:19;;;;;;;62.67;39.75;;;;;;;;;;4180970;28;20041;-58
2024/03/17 03:59:20;;;;;;;140.68;45.08;;;;;;;;;;4180940;28;20075;-58
2024/03/17 04:01:22;;;;;;;226.68;44.58;;;;;;;;;;4164375;28;20069;-59
2024/03/17 04:03:22;;;;;;;232.98;43.47;;;;;;;;;;4164380;28;20426;-58
2024/03/17 04:05:23;;;;;;;224.85;43.45;;;;;;;;;;4164692;28;20048;-57
2024/03/17 04:07:23;;;;;;;234.00;45.55;;;;;;;;;;4164397;28;20049;-58
2024/03/17 04:09:24;;;;;;;181.07;44.22;;;;;;;;;;4164569;28;20496;-58
2024/03/17 04:11:25;;;;;;;111.97;37.85;;;;;;;;;;4164242;28;20581;-58
2024/03/17 04:13:26;;;;;;;147.02;43.70;;;;;;;;;;4164436;28;20492;-57
2024/03/17 04:15:27;;;;;;;167.95;40.53;;;;;;;;;;4164205;28;20078;-58
2024/03/17 04:17:29;;;;;;;191.77;40.20;;;;;;;;;;4164251;28;20143;-58
2024/03/17 04:19:30;;;;;;;171.25;39.65;;;;;;;;;;4164610;28;20544;-58
2024/03/17 04:21:30;;;;;;;135.10;38.78;;;;;;;;;;4177908;28;20041;-58
2024/03/17 04:23:34;;;;;;;127.40;38.65;;;;;;;;;;4180575;28;20060;-56
2024/03/17 04:25:35;;;;;;;138.02;39.33;;;;;;;;;;4180475;28;20041;-57
2024/03/17 04:27:35;;;;;;;186.13;39.40;;;;;;;;;;4180525;28;20186;-58
2024/03/17 04:29:36;;;;;;;238.00;46.85;;;;;;;;;;4180334;28;20056;-58
2024/03/17 04:31:37;;;;;;;253.35;45.85;;;;;;;;;;4180441;28;20045;-58
2024/03/17 04:33:38;;;;;;;204.80;41.03;;;;;;;;;;4180572;28;20048;-58
2024/03/17 04:35:39;;;;;;;96.28;37.08;;;;;;;;;;4180590;28;20048;-58
2024/03/17 04:37:40;;;;;;;38.78;35.95;;;;;;;;;;4180380;28;20098;-57
2024/03/17 04:39:42;;;;;;;37.80;34.40;;;;;;;;;;4180494;28;20045;-57
2024/03/17 04:41:44;;;;;;;142.38;37.63;;;;;;;;;;4180188;28;20044;-54
2024/03/17 04:43:46;;;;;;;34.70;32.85;;;;;;;;;;4180246;28;20041;-54
2024/03/17 04:45:47;;;;;;;99.88;36.08;;;;;;;;;;4180319;28;20082;-53
2024/03/17 04:47:49;;;;;;;37.00;34.57;;;;;;;;;;4180146;28;20045;-52
2024/03/17 04:49:49;;;;;;;35.47;33.25;;;;;;;;;;4180151;28;20052;-53
2024/03/17 04:51:50;;;;;;;48.38;35.95;;;;;;;;;;4179779;28;20045;-54
2024/03/17 04:53:50;;;;;;;105.65;37.35;;;;;;;;;;4179904;28;20033;-53
2024/03/17 04:56:04;;;;;;;74.88;35.88;;;;;;;;;;4163460;28;20045;-53
2024/03/17 04:58:05;;;;;;;55.33;36.22;;;;;;;;;;4179932;28;20033;-52
2024/03/17 05:00:11;;;;;;;37.65;33.30;;;;;;;;;;4179936;28;20504;-55
2024/03/17 05:02:12;;;;;;;52.95;36.40;;;;;;;;;;4179992;28;20037;-53
2024/03/17 05:04:13;;;;;;;81.15;36.08;;;;;;;;;;4179749;28;20053;-53
2024/03/17 05:06:13;;;;;;;33.67;32.70;;;;;;;;;;4180144;28;20041;-53
2024/03/17 05:08:15;;;;;;;83.45;36.90;;;;;;;;;;4163356;28;20049;-52
2024/03/17 05:10:15;;;;;;;77.65;33.38;;;;;;;;;;4180021;28;20059;-54
2024/03/17 05:12:16;;;;;;;90.45;33.08;;;;;;;;;;4163323;28;20046;-53
2024/03/17 05:14:19;;;;;;;86.70;36.65;;;;;;;;;;4179853;28;20037;-54
2024/03/17 05:16:22;;;;;;;36.10;33.15;;;;;;;;;;4179645;28;20504;-53
2024/03/17 05:18:25;;;;;;;36.67;33.20;;;;;;;;;;4163091;28;20049;-54
2024/03/17 05:20:26;;;;;;;37.35;32.78;;;;;;;;;;4163210;28;20060;-53
2024/03/17 05:22:26;;;;;;;32.30;29.77;;;;;;;;;;4179579;28;20127;-52
2024/03/17 05:24:27;;;;;;;35.95;34.50;;;;;;;;;;4163129;28;20172;-54
2024/03/17 05:26:28;;;;;;;70.97;34.67;;;;;;;;;;4163145;28;20103;-54
2024/03/17 05:28:29;;;;;;;50.78;32.45;;;;;;;;;;4179614;28;20124;-54
2024/03/17 05:30:30;;;;;;;38.13;35.25;;;;;;;;;;4179817;28;20417;-54
2024/03/17 05:32:31;;;;;;;36.95;33.58;;;;;;;;;;4179618;28;20493;-54
2024/03/17 05:34:32;;;;;;;60.22;31.63;;;;;;;;;;4179523;28;20167;-54
2024/03/17 05:36:33;;;;;;;33.63;31.30;;;;;;;;;;4163318;28;20037;-53
2024/03/17 05:38:34;;;;;;;35.53;32.58;;;;;;;;;;4179313;28;20056;-54
2024/03/17 05:40:34;;;;;;;34.25;33.25;;;;;;;;;;4179657;28;20102;-54
2024/03/17 05:42:35;;;;;;;33.13;32.10;;;;;;;;;;4179416;28;20045;-54
2024/03/17 05:44:49;;;;;;;34.47;31.60;;;;;;;;;;4179393;28;20048;-53
2024/03/17 05:46:52;;;;;;;42.70;39.90;;;;;;;;;;4179408;28;20041;-54
2024/03/17 05:48:53;;;;;;;58.95;37.08;;;;;;;;;;4162490;28;20049;-55
2024/03/17 05:50:54;;;;;;;93.55;35.53;;;;;;;;;;4177438;28;20044;-55
2024/03/17 05:52:55;;;;;;;39.78;31.50;;;;;;;;;;4160942;28;20512;-54
2024/03/17 05:54:55;;;;;;;79.00;33.00;;;;;;;;;;4179281;28;20071;-55
2024/03/17 05:56:56;;;;;;;31.85;30.33;;;;;;;;;;4176579;28;20037;-54
2024/03/17 05:58:56;;;;;;;32.88;30.10;;;;;;;;;;4162842;28;20037;-54
2024/03/17 06:00:58;;;;;;;92.22;35.00;;;;;;;;;;4162936;28;20660;-52
2024/03/17 06:03:00;;;;;;;79.13;33.40;;;;;;;;;;4162275;28;20084;-55
2024/03/17 06:05:04;;;;;;;80.80;34.13;;;;;;;;;;4162943;28;20056;-54
2024/03/17 06:07:05;;;;;;;39.38;33.78;;;;;;;;;;4162866;28;20056;-54
2024/03/17 06:09:08;;;;;;;31.73;30.75;;;;;;;;;;4158886;28;20050;-55
2024/03/17 06:11:10;;;;;;;41.53;32.00;;;;;;;;;;4150736;28;20065;-53
2024/03/17 06:13:16;;;;;;;29.17;27.77;;;;;;;;;;4169605;28;20048;-54
2024/03/17 06:15:17;;;;;;;43.80;30.13;;;;;;;;;;4179345;28;20045;-52
2024/03/17 06:17:17;;;;;;;29.40;28.10;;;;;;;;;;4179332;28;20037;-55
2024/03/17 06:19:18;;;;;;;33.15;31.70;;;;;;;;;;4179053;28;20499;-55
2024/03/17 06:21:18;;;;;;;35.40;32.28;;;;;;;;;;4178921;28;20041;-54
2024/03/17 06:23:19;;;;;;;34.30;32.65;;;;;;;;;;4178685;28;20045;-52
2024/03/17 06:25:23;;;;;;;35.70;33.20;;;;;;;;;;4175060;28;20037;-54
2024/03/17 06:27:24;;;;;;;38.97;35.13;;;;;;;;;;4178940;28;20053;-54
2024/03/17 06:29:24;;;;;;;39.25;35.90;;;;;;;;;;4162399;28;20419;-55
2024/03/17 06:31:25;;;;;;;38.75;37.05;;;;;;;;;;4179103;28;20503;-54
2024/03/17 06:33:26;;;;;;;39.33;36.38;;;;;;;;;;4178782;28;20049;-54
2024/03/17 06:35:28;;;;;;;42.13;36.00;;;;;;;;;;4178977;28;20041;-54
2024/03/17 06:37:28;;;;;;;35.75;33.78;;;;;;;;;;4178042;28;20037;-54
2024/03/17 06:39:29;;;;;;;39.15;37.35;;;;;;;;;;4179235;28;20542;-53
2024/03/17 06:41:30;;;;;;;43.65;39.42;;;;;;;;;;4179344;28;20037;-58
2024/03/17 06:43:30;;;;;;;63.63;46.75;;;;;;;;;;4178917;28;20040;-58
2024/03/17 06:45:31;;;;;;;76.20;51.90;;;;;;;;;;4179030;28;20123;-56
2024/03/17 06:47:32;;;;;;;125.80;44.25;;;;;;;;;;4179141;28;20052;-59
2024/03/17 06:49:32;;;;;;;164.27;42.97;;;;;;;;;;4178035;28;20119;-57
2024/03/17 06:51:33;;;;;;;180.43;40.33;;;;;;;;;;4165190;28;20068;-56
2024/03/17 06:53:34;;;;;;;159.55;40.50;;;;;;;;;;4162372;28;20443;-57
2024/03/17 06:55:34;;;;;;;277.13;47.80;;;;;;;;;;4162131;28;20049;-58
2024/03/17 06:57:35;;;;;;;193.07;44.08;;;;;;;;;;4162478;28;20436;-58
2024/03/17 06:59:35;;;;;;;223.48;41.47;;;;;;;;;;4145695;28;20045;-58
2024/03/17 07:01:36;;;;;;;265.05;43.13;;;;;;;;;;4162800;28;20033;-58
2024/03/17 07:03:37;;;;;;;178.70;38.08;;;;;;;;;;4167265;28;20061;-57
2024/03/17 07:05:37;;;;;;;175.40;38.28;;;;;;;;;;4178727;28;20421;-58
2024/03/17 07:07:38;;;;;;;104.15;40.33;;;;;;;;;;4178749;28;20045;-59
2024/03/17 07:09:39;;;;;;;168.98;42.78;;;;;;;;;;4178423;28;20037;-58
2024/03/17 07:11:40;;;;;;;117.93;38.35;;;;;;;;;;4162161;28;20049;-58
2024/03/17 07:13:41;;;;;;;132.68;34.65;;;;;;;;;;4178767;28;20033;-56
2024/03/17 07:15:46;;;;;;;77.23;33.23;;;;;;;;;;4164740;28;20034;-58
2024/03/17 07:17:47;;;;;;;108.60;34.75;;;;;;;;;;4175419;28;20033;-58
2024/03/17 07:19:49;;;;;;;253.25;43.55;;;;;;;;;;4170936;28;20512;-58
2024/03/17 07:21:49;;;;;;;112.35;32.92;;;;;;;;;;4169195;28;20048;-58
2024/03/17 07:23:50;;;;;;;116.80;35.50;;;;;;;;;;4171311;28;20045;-58
2024/03/17 07:25:52;;;;;;;104.55;35.13;;;;;;;;;;4173966;28;20045;-59
2024/03/17 07:27:53;;;;;;;91.53;34.58;;;;;;;;;;4148646;28;20064;-58
2024/03/17 07:29:53;;;;;;;43.65;29.00;;;;;;;;;;4168877;28;20698;-58
2024/03/17 07:31:54;;;;;;;37.90;32.90;;;;;;;;;;4180958;28;20431;-58
2024/03/17 07:33:55;;;;;;;32.90;30.33;;;;;;;;;;4175840;28;20509;-59
2024/03/17 07:35:56;;;;;;;48.17;32.63;;;;;;;;;;4164791;28;20038;-57
2024/03/17 07:37:57;;;;;;;31.40;29.63;;;;;;;;;;4165210;28;20037;-58
2024/03/17 07:40:00;;;;;;;35.22;32.33;;;;;;;;;;4148349;28;20289;-58
2024/03/17 07:42:01;;;;;;;34.85;32.10;;;;;;;;;;4173897;28;20037;-58
2024/03/17 07:44:02;;;;;;;44.05;38.58;;;;;;;;;;4173803;28;20044;-58
2024/03/17 07:46:07;;;;;;;42.20;37.88;;;;;;;;;;4164659;28;20038;-58
2024/03/17 07:48:07;;;;;;;80.03;43.28;;;;;;;;;;4165669;28;20710;-57
2024/03/17 07:50:08;;;;;;;40.20;35.42;;;;;;;;;;4168493;28;20041;-58
2024/03/17 07:52:08;;;;;;;40.38;35.03;;;;;;;;;;4164728;28;20045;-58
2024/03/17 07:54:09;;;;;;;49.40;40.80;;;;;;;;;;4170871;28;20128;-58
2024/03/17 07:56:10;;;;;;;42.13;36.85;;;;;;;;;;4167811;28;20037;-57
2024/03/17 07:58:10;;;;;;;44.83;40.08;;;;;;;;;;4170520;28;20068;-57
2024/03/17 08:00:17;;;;;;;40.25;36.13;;;;;;;;;;4173632;28;20064;-57
2024/03/17 08:02:18;;;;;;;40.15;35.55;;;;;;;;;;4171911;28;20044;-57
2024/03/17 08:04:18;;;;;;;40.78;36.75;;;;;;;;;;4177168;28;20053;-58
2024/03/17 08:06:20;;;;;;;48.55;42.78;;;;;;;;;;4153972;28;20056;-58
2024/03/17 08:08:21;;;;;;;50.35;45.17;;;;;;;;;;4168718;28;20059;-58
2024/03/17 08:10:22;;;;;;;41.45;37.70;;;;;;;;;;4170195;28;20250;-58
2024/03/17 08:12:22;;;;;;;43.20;39.95;;;;;;;;;;4176172;28;20179;-58
2024/03/17 08:14:23;;;;;;;41.30;37.40;;;;;;;;;;4168764;28;20034;-57
2024/03/17 08:16:23;;;;;;;47.33;42.42;;;;;;;;;;4179059;28;20649;-57
2024/03/17 08:18:25;;;;;;;51.25;46.35;;;;;;;;;;4173585;28;20512;-56
2024/03/17 08:20:25;;;;;;;51.25;45.58;;;;;;;;;;4176878;28;20064;-58
2024/03/17 08:22:26;;;;;;;56.25;50.50;;;;;;;;;;4171375;28;20107;-58
2024/03/17 08:24:28;;;;;;;53.17;48.22;;;;;;;;;;4171417;28;20036;-58
2024/03/17 08:26:29;;;;;;;39.75;37.10;;;;;;;;;;4173662;28;20594;-57
2024/03/17 08:28:29;;;;;;;43.97;40.38;;;;;;;;;;4175713;28;20038;-57
2024/03/17 08:30:30;;;;;;;40.90;38.05;;;;;;;;;;4167348;28;20037;-58
2024/03/17 08:32:30;;;;;;;42.42;39.40;;;;;;;;;;4171005;28;20489;-57
2024/03/17 08:34:32;;;;;;;40.15;36.92;;;;;;;;;;4179957;28;20069;-58
2024/03/17 08:36:32;;;;;;;35.50;32.80;;;;;;;;;;4173968;28;20037;-55
2024/03/17 08:38:34;;;;;;;32.88;30.70;;;;;;;;;;4180447;28;20047;-58
2024/03/17 08:40:36;;;;;;;49.72;44.90;;;;;;;;;;4175375;28;20041;-59
2024/03/17 08:42:37;;;;;;;41.95;38.13;;;;;;;;;;4171378;28;20025;-58
2024/03/17 08:44:37;;;;;;;41.55;37.78;;;;;;;;;;4171003;28;20103;-58
2024/03/17 08:46:38;;;;;;;35.72;33.13;;;;;;;;;;4173530;28;20128;-57
2024/03/17 08:48:41;;;;;;;38.25;34.97;;;;;;;;;;4174441;28;20075;-57
2024/03/17 08:50:49;;;;;;;28.27;26.00;;;;;;;;;;4178941;28;20032;-58
2024/03/17 08:52:50;;;;;;;29.20;27.00;;;;;;;;;;4180039;28;20037;-58
2024/03/17 08:54:51;;;;;;;19.80;18.98;;;;;;;;;;4163431;28;20037;-57
2024/03/17 08:56:52;;;;;;;22.90;21.65;;;;;;;;;;4179987;28;20512;-56
2024/03/17 08:58:52;;;;;;;18.50;17.83;;;;;;;;;;4180017;28;20123;-58
2024/03/17 09:00:53;;;;;;;20.10;19.23;;;;;;;;;;4174872;28;20037;-58
2024/03/17 09:02:53;;;;;;;17.20;16.52;;;;;;;;;;4166852;28;20045;-58
2024/03/17 09:04:54;;;;;;;14.82;14.43;;;;;;;;;;4146477;28;20543;-57
2024/03/17 09:06:56;;;;;;;14.50;14.20;;;;;;;;;;4139236;28;20092;-58
2024/03/17 09:08:56;;;;;;;14.02;13.90;;;;;;;;;;4132154;28;20038;-57
2024/03/17 09:10:57;;;;;;;12.15;11.40;;;;;;;;;;4137385;28;20241;-57
2024/03/17 09:12:57;;;;;;;10.63;10.43;;;;;;;;;;4135890;28;20561;-57
2024/03/17 09:14:58;;;;;;;11.88;11.60;;;;;;;;;;4139487;28;20034;-58
2024/03/17 09:16:59;;;;;;;11.10;10.80;;;;;;;;;;4139114;28;20076;-58
2024/03/17 09:18:59;;;;;;;8.45;8.25;;;;;;;;;;4147127;28;20030;-58
2024/03/17 09:21:02;;;;;;;7.47;7.38;;;;;;;;;;4147052;28;20114;-58
2024/03/17 09:23:03;;;;;;;7.68;7.53;;;;;;;;;;4145319;28;20042;-58
2024/03/17 09:25:09;;;;;;;7.35;7.18;;;;;;;;;;4146693;28;20053;-58
2024/03/17 09:27:10;;;;;;;8.18;7.78;;;;;;;;;;4146944;28;20049;-58
2024/03/17 09:29:11;;;;;;;6.55;6.25;;;;;;;;;;4146276;28;20046;-57
2024/03/17 09:31:12;;;;;;;6.18;5.97;;;;;;;;;;4145946;28;20429;-58
2024/03/17 09:33:13;;;;;;;7.60;7.38;;;;;;;;;;4132382;28;20050;-58
2024/03/17 09:35:13;;;;;;;5.60;5.30;;;;;;;;;;4143212;28;20057;-58
2024/03/17 09:37:15;;;;;;;5.93;5.82;;;;;;;;;;4143152;28;20147;-58
2024/03/17 09:39:16;;;;;;;5.35;5.20;;;;;;;;;;4142095;28;20042;-58
2024/03/17 09:41:21;;;;;;;5.10;4.90;;;;;;;;;;4122125;28;20047;-58
2024/03/17 09:43:23;;;;;;;4.45;4.15;;;;;;;;;;4139169;28;20049;-57
2024/03/17 09:45:24;;;;;;;5.63;5.53;;;;;;;;;;4130766;28;20051;-58
2024/03/17 09:47:26;;;;;;;6.00;5.60;;;;;;;;;;4130215;28;20062;-59
2024/03/17 09:49:27;;;;;;;5.00;4.70;;;;;;;;;;4129026;28;20116;-59
2024/03/17 09:51:27;;;;;;;4.82;4.72;;;;;;;;;;4132190;28;20046;-58
2024/03/17 09:53:38;;;;;;;5.45;5.28;;;;;;;;;;4141627;28;20038;-58
2024/03/17 09:55:38;;;;;;;5.85;5.47;;;;;;;;;;4139551;28;20490;-59
2024/03/17 09:57:40;;;;;;;4.22;4.05;;;;;;;;;;4124916;28;20054;-60
2024/03/17 09:59:41;;;;;;;6.07;5.97;;;;;;;;;;4143362;28;20042;-59
2024/03/17 10:01:43;;;;;;;5.50;5.30;;;;;;;;;;4145477;28;20197;-69
2024/03/17 10:03:51;;;;;;;4.78;4.57;;;;;;;;;;4154347;28;20045;-60
2024/03/17 10:05:59;;;;;;;4.38;4.25;;;;;;;;;;4175245;28;20040;-59
2024/03/17 10:08:00;;;;;;;4.50;4.30;;;;;;;;;;4171301;28;20049;-57
2024/03/17 10:10:12;;;;;;;4.15;3.88;;;;;;;;;;4170970;28;20123;-57
2024/03/17 10:12:26;;;;;;;3.15;2.95;;;;;;;;;;4175133;28;20098;-57
2024/03/17 10:14:27;;;;;;;3.38;3.20;;;;;;;;;;4170848;28;20104;-59
2024/03/17 10:16:31;;;;;;;3.60;3.40;;;;;;;;;;4167930;28;20038;-59
2024/03/17 10:18:32;;;;;;;2.83;2.72;;;;;;;;;;4170441;28;20040;-58
2024/03/17 10:20:32;;;;;;;2.60;2.60;;;;;;;;;;4169710;28;20627;-58
2024/03/17 10:22:34;;;;;;;2.67;2.67;;;;;;;;;;4170300;28;20071;-58
2024/03/17 10:24:34;;;;;;;3.58;2.33;;;;;;;;;;4177937;28;20041;-59
2024/03/17 10:26:40;;;;;;;2.08;2.08;;;;;;;;;;4177619;28;20445;-59
2024/03/17 10:28:43;;;;;;;2.25;2.15;;;;;;;;;;4161466;28;20060;-58
2024/03/17 10:30:57;;;;;;;7.43;2.75;;;;;;;;;;4157050;28;20083;-58
2024/03/17 10:32:58;;;;;;;4.45;2.63;;;;;;;;;;4180127;28;20037;-58
2024/03/17 10:34:59;;;;;;;2.90;2.80;;;;;;;;;;4171490;28;20460;-58
2024/03/17 10:37:10;;;;;;;3.08;2.97;;;;;;;;;;4176265;28;20033;-57
2024/03/17 10:39:28;;;;;;;2.70;2.60;;;;;;;;;;4199012;28;20577;-62
2024/03/17 10:41:32;;;;;;;2.50;2.47;;;;;;;;;;4175429;28;20047;-62
2024/03/17 10:43:34;;;;;;;2.67;2.58;;;;;;;;;;4172228;28;20045;-62
2024/03/17 10:45:38;;;;;;;2.58;2.47;;;;;;;;;;4174529;28;20041;-62
2024/03/17 10:47:42;;;;;;;3.40;3.17;;;;;;;;;;4176166;28;20619;-62
2024/03/17 10:49:43;;;;;;;2.80;2.80;;;;;;;;;;4167245;28;20052;-62
2024/03/17 10:51:47;;;;;;;2.17;2.08;;;;;;;;;;4178881;28;20037;-62
2024/03/17 10:53:49;;;;;;;2.35;2.25;;;;;;;;;;4181336;28;20091;-62
2024/03/17 10:55:50;;;;;;;2.13;1.92;;;;;;;;;;4180779;28;20037;-62
2024/03/17 10:57:52;;;;;;;2.63;2.53;;;;;;;;;;4179852;28;20037;-62
2024/03/17 10:59:53;;;;;;;1.90;1.90;;;;;;;;;;4178809;28;20033;-62
2024/03/17 11:01:54;;;;;;;1.90;1.90;;;;;;;;;;4169545;28;20045;-62
2024/03/17 11:03:55;;;;;;;1.98;1.88;;;;;;;;;;4183489;28;20057;-62
2024/03/17 11:05:57;;;;;;;2.67;2.47;;;;;;;;;;4181605;28;20045;-62
2024/03/17 11:08:01;;;;;;;2.70;2.50;;;;;;;;;;4180588;28;20044;-62
2024/03/17 11:10:03;;;;;;;4.00;3.88;;;;;;;;;;4172145;28;20091;-62
2024/03/17 11:12:04;;;;;;;;;;;;;;;;;;4176420;28;20075;-62
2024/03/17 11:14:22;;;;;;;2.58;2.35;;;;;;;;;;4178528;28;19924;-62
2024/03/17 11:16:27;;;;;;;3.42;3.30;;;;;;;;;;4178706;28;20052;-61
2024/03/17 11:18:30;;;;;;;2.75;2.67;;;;;;;;;;4180062;28;20506;-62
2024/03/17 11:20:30;;;;;;;4.28;3.88;;;;;;;;;;4181077;28;20466;-62
2024/03/17 11:22:48;;;;;;;2.58;2.53;;;;;;;;;;4179416;28;20519;-62
2024/03/17 11:24:50;;;;;;;3.40;3.28;;;;;;;;;;4172832;28;20044;-62
2024/03/17 11:26:50;;;;;;;2.80;2.60;;;;;;;;;;4173174;28;20155;-62
2024/03/17 11:28:51;;;;;;;2.20;1.92;;;;;;;;;;4180268;28;20037;-62
2024/03/17 11:30:57;;;;;;;3.58;3.28;;;;;;;;;;4177393;28;20381;-62
2024/03/17 11:32:58;;;;;;;2.78;2.67;;;;;;;;;;4176243;28;20396;-62
2024/03/17 11:35:15;;;;;;;2.47;1.58;;;;;;;;;;4178904;28;20037;-62
2024/03/17 11:37:34;;;;;;;3.33;3.22;;;;;;;;;;4177120;28;20041;-61
2024/03/17 11:39:55;;;;;;;2.60;2.50;;;;;;;;;;4177874;28;20111;-61
2024/03/17 11:42:04;;;;;;;2.10;2.00;;;;;;;;;;4179528;28;20029;-61
2024/03/17 11:44:24;;;;;;;5.13;4.72;;;;;;;;;;4179563;28;20044;-62
2024/03/17 11:46:25;;;;;;;2.03;1.92;;;;;;;;;;4177864;28;20045;-61
2024/03/17 11:48:27;;;;;;;3.10;2.90;;;;;;;;;;4180710;28;20056;-61
2024/03/17 11:50:28;;;;;;;2.72;2.58;;;;;;;;;;4178879;28;20037;-62
2024/03/17 11:52:28;;;;;;;2.08;1.98;;;;;;;;;;4180779;28;20115;-62
2024/03/17 11:54:35;;;;;;;1.63;1.63;;;;;;;;;;4180206;28;20400;-62